sensor_id;sensor_type;location;lat;lon;timestamp;pressure;altitude;pressure_sealevel;temperature;humidity
20889;BME280;10604;51.976;7.594;2024-02-04T00:01:38;101385.00;;;21.97;48.57
20889;BME280;10604;51.976;7.594;2024-02-04T00:04:04;101387.41;;;22.01;48.91
20889;BME280;10604;51.976;7.594;2024-02-04T00:06:29;101380.84;;;21.78;48.76
20889;BME280;10604;51.976;7.594;2024-02-04T00:08:54;101389.50;;;21.42;50.29
20889;BME280;10604;51.976;7.594;2024-02-04T00:11:19;101385.34;;;21.24;50.16
20889;BME280;10604;51.976;7.594;2024-02-04T00:13:44;101389.81;;;22.31;48.63
20889;BME280;10604;51.976;7.594;2024-02-04T00:16:10;101383.72;;;21.48;50.45
20889;BME280;10604;51.976;7.594;2024-02-04T00:18:35;101394.31;;;21.09;51.47
20889;BME280;10604;51.976;7.594;2024-02-04T00:21:00;101385.09;;;21.68;50.50
20889;BME280;10604;51.976;7.594;2024-02-04T00:23:25;101372.88;;;21.77;49.44
20889;BME280;10604;51.976;7.594;2024-02-04T00:25:50;101378.41;;;21.20;51.18
20889;BME280;10604;51.976;7.594;2024-02-04T00:28:16;101366.03;;;19.87;54.39
20889;BME280;10604;51.976;7.594;2024-02-04T00:30:41;101375.72;;;21.06;52.39
20889;BME280;10604;51.976;7.594;2024-02-04T00:33:06;101369.84;;;21.69;50.56
20889;BME280;10604;51.976;7.594;2024-02-04T00:35:31;101371.88;;;21.38;50.94
20889;BME280;10604;51.976;7.594;2024-02-04T00:37:57;101380.13;;;21.07;51.69
20889;BME280;10604;51.976;7.594;2024-02-04T00:40:22;101375.34;;;21.26;51.77
20889;BME280;10604;51.976;7.594;2024-02-04T00:42:47;101362.59;;;20.45;52.77
20889;BME280;10604;51.976;7.594;2024-02-04T00:45:12;101381.16;;;20.62;53.56
20889;BME280;10604;51.976;7.594;2024-02-04T00:47:38;101381.88;;;20.94;52.94
20889;BME280;10604;51.976;7.594;2024-02-04T00:50:03;101384.88;;;21.59;51.06
20889;BME280;10604;51.976;7.594;2024-02-04T00:52:28;101394.88;;;21.14;51.20
20889;BME280;10604;51.976;7.594;2024-02-04T00:54:54;101385.97;;;20.27;54.29
20889;BME280;10604;51.976;7.594;2024-02-04T00:57:19;101378.50;;;20.32;53.69
20889;BME280;10604;51.976;7.594;2024-02-04T00:59:44;101375.22;;;21.69;50.89
20889;BME280;10604;51.976;7.594;2024-02-04T01:02:09;101366.56;;;22.05;49.73
20889;BME280;10604;51.976;7.594;2024-02-04T01:04:34;101377.25;;;21.10;51.78
20889;BME280;10604;51.976;7.594;2024-02-04T01:07:00;101377.44;;;20.64;52.37
20889;BME280;10604;51.976;7.594;2024-02-04T01:09:25;101376.69;;;20.62;52.58
20889;BME280;10604;51.976;7.594;2024-02-04T01:11:50;101370.28;;;20.93;52.42
20889;BME280;10604;51.976;7.594;2024-02-04T01:14:18;101371.31;;;20.91;51.88
20889;BME280;10604;51.976;7.594;2024-02-04T01:16:43;101373.03;;;21.06;52.13
20889;BME280;10604;51.976;7.594;2024-02-04T01:19:08;101372.06;;;21.35;51.14
20889;BME280;10604;51.976;7.594;2024-02-04T01:21:33;101361.75;;;20.58;52.41
20889;BME280;10604;51.976;7.594;2024-02-04T01:23:58;101368.81;;;21.30;52.32
20889;BME280;10604;51.976;7.594;2024-02-04T01:26:24;101366.38;;;21.81;49.25
20889;BME280;10604;51.976;7.594;2024-02-04T01:28:49;101371.53;;;20.74;52.59
20889;BME280;10604;51.976;7.594;2024-02-04T01:31:14;101368.81;;;21.30;51.34
20889;BME280;10604;51.976;7.594;2024-02-04T01:33:40;101383.38;;;21.67;50.60
20889;BME280;10604;51.976;7.594;2024-02-04T01:36:05;101377.84;;;21.29;51.29
20889;BME280;10604;51.976;7.594;2024-02-04T01:38:30;101385.31;;;21.38;50.16
20889;BME280;10604;51.976;7.594;2024-02-04T01:40:55;101385.13;;;20.70;51.95
20889;BME280;10604;51.976;7.594;2024-02-04T01:43:22;101375.84;;;21.60;50.81
20889;BME280;10604;51.976;7.594;2024-02-04T01:45:48;101378.16;;;22.05;49.66
20889;BME280;10604;51.976;7.594;2024-02-04T01:48:15;101386.03;;;21.40;50.49
20889;BME280;10604;51.976;7.594;2024-02-04T01:50:40;101380.31;;;20.90;52.83
20889;BME280;10604;51.976;7.594;2024-02-04T01:53:06;101380.28;;;21.46;51.25
20889;BME280;10604;51.976;7.594;2024-02-04T01:55:31;101368.63;;;20.77;52.72
20889;BME280;10604;51.976;7.594;2024-02-04T01:57:56;101366.09;;;21.44;51.21
20889;BME280;10604;51.976;7.594;2024-02-04T02:00:21;101358.00;;;20.61;52.40
20889;BME280;10604;51.976;7.594;2024-02-04T02:02:47;101362.13;;;20.66;52.20
20889;BME280;10604;51.976;7.594;2024-02-04T02:05:13;101367.84;;;20.60;52.41
20889;BME280;10604;51.976;7.594;2024-02-04T02:07:39;101349.59;;;21.51;51.19
20889;BME280;10604;51.976;7.594;2024-02-04T02:10:05;101358.75;;;21.05;51.76
20889;BME280;10604;51.976;7.594;2024-02-04T02:12:36;101358.41;;;22.19;48.66
20889;BME280;10604;51.976;7.594;2024-02-04T02:15:10;101362.88;;;20.83;51.56
20889;BME280;10604;51.976;7.594;2024-02-04T02:17:41;101374.38;;;21.27;51.52
20889;BME280;10604;51.976;7.594;2024-02-04T02:20:15;101372.75;;;20.82;51.29
20889;BME280;10604;51.976;7.594;2024-02-04T02:22:49;101360.16;;;22.33;48.81
20889;BME280;10604;51.976;7.594;2024-02-04T02:25:16;101363.66;;;20.85;50.70
20889;BME280;10604;51.976;7.594;2024-02-04T02:27:50;101364.66;;;22.19;48.82
20889;BME280;10604;51.976;7.594;2024-02-04T02:30:16;101360.75;;;21.98;48.63
20889;BME280;10604;51.976;7.594;2024-02-04T02:32:42;101366.16;;;21.16;49.35
20889;BME280;10604;51.976;7.594;2024-02-04T02:35:08;101361.66;;;20.60;50.31
20889;BME280;10604;51.976;7.594;2024-02-04T02:37:36;101367.50;;;20.95;49.92
20889;BME280;10604;51.976;7.594;2024-02-04T02:40:03;101363.66;;;20.99;49.17
20889;BME280;10604;51.976;7.594;2024-02-04T02:42:30;101356.88;;;21.48;48.87
20889;BME280;10604;51.976;7.594;2024-02-04T02:44:56;101360.84;;;21.70;47.92
20889;BME280;10604;51.976;7.594;2024-02-04T02:47:22;101359.75;;;21.60;48.52
20889;BME280;10604;51.976;7.594;2024-02-04T02:49:48;101359.28;;;22.19;47.29
20889;BME280;10604;51.976;7.594;2024-02-04T02:52:15;101353.25;;;21.89;47.70
20889;BME280;10604;51.976;7.594;2024-02-04T02:54:40;101361.03;;;21.11;49.40
20889;BME280;10604;51.976;7.594;2024-02-04T02:57:06;101351.78;;;21.17;49.10
20889;BME280;10604;51.976;7.594;2024-02-04T02:59:31;101355.00;;;21.36;48.51
20889;BME280;10604;51.976;7.594;2024-02-04T03:01:56;101337.19;;;21.75;47.93
20889;BME280;10604;51.976;7.594;2024-02-04T03:04:22;101340.25;;;21.96;47.79
20889;BME280;10604;51.976;7.594;2024-02-04T03:06:47;101344.09;;;21.25;48.65
20889;BME280;10604;51.976;7.594;2024-02-04T03:09:12;101333.88;;;21.44;47.97
20889;BME280;10604;51.976;7.594;2024-02-04T03:11:38;101342.44;;;21.37;48.13
20889;BME280;10604;51.976;7.594;2024-02-04T03:14:03;101333.22;;;20.71;48.75
20889;BME280;10604;51.976;7.594;2024-02-04T03:16:28;101337.19;;;21.75;47.87
20889;BME280;10604;51.976;7.594;2024-02-04T03:18:53;101335.50;;;22.13;46.75
20889;BME280;10604;51.976;7.594;2024-02-04T03:21:19;101331.53;;;22.32;46.61
20889;BME280;10604;51.976;7.594;2024-02-04T03:23:44;101329.38;;;22.11;46.68
20889;BME280;10604;51.976;7.594;2024-02-04T03:26:10;101335.63;;;22.24;46.46
20889;BME280;10604;51.976;7.594;2024-02-04T03:28:35;101342.69;;;22.00;46.75
20889;BME280;10604;51.976;7.594;2024-02-04T03:31:00;101345.84;;;21.80;47.39
20889;BME280;10604;51.976;7.594;2024-02-04T03:33:26;101336.75;;;21.68;47.59
20889;BME280;10604;51.976;7.594;2024-02-04T03:35:51;101326.56;;;22.00;46.62
20889;BME280;10604;51.976;7.594;2024-02-04T03:38:16;101326.97;;;21.94;46.90
20889;BME280;10604;51.976;7.594;2024-02-04T03:40:41;101327.09;;;22.05;46.77
20889;BME280;10604;51.976;7.594;2024-02-04T03:43:08;101324.72;;;21.34;48.70
20889;BME280;10604;51.976;7.594;2024-02-04T03:45:33;101326.53;;;21.87;47.77
20889;BME280;10604;51.976;7.594;2024-02-04T03:47:58;101327.19;;;21.37;48.47
20889;BME280;10604;51.976;7.594;2024-02-04T03:50:23;101318.69;;;21.58;48.28
20889;BME280;10604;51.976;7.594;2024-02-04T03:52:49;101334.47;;;22.29;46.53
20889;BME280;10604;51.976;7.594;2024-02-04T03:55:14;101335.84;;;21.28;48.36
20889;BME280;10604;51.976;7.594;2024-02-04T03:57:39;101341.41;;;21.11;48.80
20889;BME280;10604;51.976;7.594;2024-02-04T04:00:05;101333.97;;;21.16;49.41
20889;BME280;10604;51.976;7.594;2024-02-04T04:02:30;101320.88;;;21.38;48.92
20889;BME280;10604;51.976;7.594;2024-02-04T04:04:55;101315.56;;;21.24;48.96
20889;BME280;10604;51.976;7.594;2024-02-04T04:07:21;101316.34;;;21.66;47.96
20889;BME280;10604;51.976;7.594;2024-02-04T04:09:46;101325.13;;;21.14;49.41
20889;BME280;10604;51.976;7.594;2024-02-04T04:12:11;101329.56;;;21.01;49.59
20889;BME280;10604;51.976;7.594;2024-02-04T04:14:36;101337.72;;;21.40;48.49
20889;BME280;10604;51.976;7.594;2024-02-04T04:17:01;101332.03;;;21.18;48.43
20889;BME280;10604;51.976;7.594;2024-02-04T04:19:27;101336.66;;;21.70;47.64
20889;BME280;10604;51.976;7.594;2024-02-04T04:21:52;101344.00;;;21.54;47.81
20889;BME280;10604;51.976;7.594;2024-02-04T04:24:17;101339.53;;;20.85;49.37
20889;BME280;10604;51.976;7.594;2024-02-04T04:26:47;101332.09;;;21.84;47.73
20889;BME280;10604;51.976;7.594;2024-02-04T04:29:12;101339.13;;;20.62;48.95
20889;BME280;10604;51.976;7.594;2024-02-04T04:31:37;101345.34;;;21.05;48.80
20889;BME280;10604;51.976;7.594;2024-02-04T04:34:02;101330.56;;;22.07;46.86
20889;BME280;10604;51.976;7.594;2024-02-04T04:36:27;101343.91;;;21.28;47.57
20889;BME280;10604;51.976;7.594;2024-02-04T04:38:53;101347.88;;;21.49;47.87
20889;BME280;10604;51.976;7.594;2024-02-04T04:41:18;101337.53;;;21.70;46.96
20889;BME280;10604;51.976;7.594;2024-02-04T04:43:43;101344.50;;;20.91;49.26
20889;BME280;10604;51.976;7.594;2024-02-04T04:46:08;101339.00;;;21.62;47.86
20889;BME280;10604;51.976;7.594;2024-02-04T04:48:33;101341.25;;;21.68;47.89
20889;BME280;10604;51.976;7.594;2024-02-04T04:50:59;101342.75;;;20.33;50.17
20889;BME280;10604;51.976;7.594;2024-02-04T04:53:24;101338.94;;;21.22;48.94
20889;BME280;10604;51.976;7.594;2024-02-04T04:55:49;101334.25;;;21.92;47.27
20889;BME280;10604;51.976;7.594;2024-02-04T04:58:14;101344.16;;;21.38;47.75
20889;BME280;10604;51.976;7.594;2024-02-04T05:00:39;101336.72;;;21.15;48.74
20889;BME280;10604;51.976;7.594;2024-02-04T05:03:05;101320.16;;;22.15;46.87
20889;BME280;10604;51.976;7.594;2024-02-04T05:05:30;101330.06;;;21.88;47.42
20889;BME280;10604;51.976;7.594;2024-02-04T05:07:55;101336.13;;;21.65;47.24
20889;BME280;10604;51.976;7.594;2024-02-04T05:10:20;101345.94;;;22.18;46.78
20889;BME280;10604;51.976;7.594;2024-02-04T05:12:45;101343.69;;;21.85;47.57
20889;BME280;10604;51.976;7.594;2024-02-04T05:15:11;101345.03;;;21.38;48.33
20889;BME280;10604;51.976;7.594;2024-02-04T05:17:36;101340.84;;;20.92;48.98
20889;BME280;10604;51.976;7.594;2024-02-04T05:20:02;101344.22;;;21.51;48.26
20889;BME280;10604;51.976;7.594;2024-02-04T05:22:28;101343.72;;;21.31;49.40
20889;BME280;10604;51.976;7.594;2024-02-04T05:24:53;101323.22;;;21.70;48.38
20889;BME280;10604;51.976;7.594;2024-02-04T05:27:18;101316.53;;;20.38;50.35
20889;BME280;10604;51.976;7.594;2024-02-04T05:29:44;101319.19;;;21.09;49.61
20889;BME280;10604;51.976;7.594;2024-02-04T05:32:10;101319.00;;;20.98;50.00
20889;BME280;10604;51.976;7.594;2024-02-04T05:34:36;101326.84;;;20.30;51.62
20889;BME280;10604;51.976;7.594;2024-02-04T05:37:01;101301.09;;;21.66;48.27
20889;BME280;10604;51.976;7.594;2024-02-04T05:39:26;101296.41;;;21.16;48.51
20889;BME280;10604;51.976;7.594;2024-02-04T05:41:52;101299.28;;;20.85;49.23
20889;BME280;10604;51.976;7.594;2024-02-04T05:44:17;101292.59;;;20.78;49.80
20889;BME280;10604;51.976;7.594;2024-02-04T05:46:42;101295.63;;;21.41;49.03
20889;BME280;10604;51.976;7.594;2024-02-04T05:49:07;101288.72;;;21.24;48.42
20889;BME280;10604;51.976;7.594;2024-02-04T05:51:37;101297.91;;;21.20;48.64
20889;BME280;10604;51.976;7.594;2024-02-04T05:54:02;101275.91;;;21.55;47.74
20889;BME280;10604;51.976;7.594;2024-02-04T05:56:27;101283.41;;;21.89;47.10
20889;BME280;10604;51.976;7.594;2024-02-04T05:58:53;101287.53;;;21.14;48.49
20889;BME280;10604;51.976;7.594;2024-02-04T06:01:18;101288.34;;;21.16;48.43
20889;BME280;10604;51.976;7.594;2024-02-04T06:03:43;101286.56;;;21.29;47.97
20889;BME280;10604;51.976;7.594;2024-02-04T06:06:09;101269.25;;;21.47;47.81
20889;BME280;10604;51.976;7.594;2024-02-04T06:08:34;101286.88;;;21.52;47.39
20889;BME280;10604;51.976;7.594;2024-02-04T06:10:59;101283.44;;;21.49;47.45
20889;BME280;10604;51.976;7.594;2024-02-04T06:13:24;101288.53;;;21.67;46.94
20889;BME280;10604;51.976;7.594;2024-02-04T06:15:50;101283.72;;;21.72;47.51
20889;BME280;10604;51.976;7.594;2024-02-04T06:18:15;101285.13;;;21.90;46.42
20889;BME280;10604;51.976;7.594;2024-02-04T06:20:40;101295.50;;;21.16;47.61
20889;BME280;10604;51.976;7.594;2024-02-04T06:23:06;101291.56;;;20.66;48.96
20889;BME280;10604;51.976;7.594;2024-02-04T06:25:31;101295.44;;;21.03;48.31
20889;BME280;10604;51.976;7.594;2024-02-04T06:27:56;101292.56;;;20.92;48.31
20889;BME280;10604;51.976;7.594;2024-02-04T06:30:21;101282.38;;;19.98;49.79
20889;BME280;10604;51.976;7.594;2024-02-04T06:32:49;101280.06;;;19.91;49.83
20889;BME280;10604;51.976;7.594;2024-02-04T06:35:15;101280.50;;;21.67;47.29
20889;BME280;10604;51.976;7.594;2024-02-04T06:37:40;101264.38;;;21.79;46.19
20889;BME280;10604;51.976;7.594;2024-02-04T06:40:06;101268.22;;;21.09;47.42
20889;BME280;10604;51.976;7.594;2024-02-04T06:42:31;101259.13;;;21.38;47.09
20889;BME280;10604;51.976;7.594;2024-02-04T06:44:56;101251.19;;;20.96;48.11
20889;BME280;10604;51.976;7.594;2024-02-04T06:47:22;101244.38;;;21.71;46.66
20889;BME280;10604;51.976;7.594;2024-02-04T06:49:47;101242.41;;;20.80;48.20
20889;BME280;10604;51.976;7.594;2024-02-04T06:52:12;101243.88;;;20.98;48.36
20889;BME280;10604;51.976;7.594;2024-02-04T06:54:37;101254.75;;;21.50;47.64
20889;BME280;10604;51.976;7.594;2024-02-04T06:57:02;101280.53;;;21.92;46.22
20889;BME280;10604;51.976;7.594;2024-02-04T06:59:28;101268.63;;;21.03;47.57
20889;BME280;10604;51.976;7.594;2024-02-04T07:01:53;101275.31;;;21.10;48.26
20889;BME280;10604;51.976;7.594;2024-02-04T07:04:18;101277.44;;;20.91;48.34
20889;BME280;10604;51.976;7.594;2024-02-04T07:06:46;101283.47;;;21.75;47.07
20889;BME280;10604;51.976;7.594;2024-02-04T07:09:11;101282.72;;;21.33;47.49
20889;BME280;10604;51.976;7.594;2024-02-04T07:11:37;101280.09;;;21.05;48.21
20889;BME280;10604;51.976;7.594;2024-02-04T07:14:03;101265.16;;;21.01;47.77
20889;BME280;10604;51.976;7.594;2024-02-04T07:16:28;101261.31;;;19.91;49.99
20889;BME280;10604;51.976;7.594;2024-02-04T07:18:54;101261.94;;;20.96;48.54
20889;BME280;10604;51.976;7.594;2024-02-04T07:21:19;101262.69;;;20.84;48.62
20889;BME280;10604;51.976;7.594;2024-02-04T07:23:44;101260.88;;;20.84;47.97
20889;BME280;10604;51.976;7.594;2024-02-04T07:26:10;101262.72;;;20.55;49.37
20889;BME280;10604;51.976;7.594;2024-02-04T07:28:35;101266.16;;;20.29;49.46
20889;BME280;10604;51.976;7.594;2024-02-04T07:31:00;101270.19;;;20.79;48.88
20889;BME280;10604;51.976;7.594;2024-02-04T07:33:25;101263.31;;;20.75;48.88
20889;BME280;10604;51.976;7.594;2024-02-04T07:35:51;101259.09;;;20.56;49.02
20889;BME280;10604;51.976;7.594;2024-02-04T07:38:16;101261.09;;;20.81;48.23
20889;BME280;10604;51.976;7.594;2024-02-04T07:40:41;101261.66;;;21.13;47.61
20889;BME280;10604;51.976;7.594;2024-02-04T07:43:07;101265.63;;;20.66;47.82
20889;BME280;10604;51.976;7.594;2024-02-04T07:45:32;101263.25;;;20.18;49.01
20889;BME280;10604;51.976;7.594;2024-02-04T07:47:57;101275.28;;;19.97;48.89
20889;BME280;10604;51.976;7.594;2024-02-04T07:50:23;101284.50;;;19.47;48.72
20889;BME280;10604;51.976;7.594;2024-02-04T07:52:48;101294.00;;;19.82;49.21
20889;BME280;10604;51.976;7.594;2024-02-04T07:55:13;101304.09;;;20.51;47.83
20889;BME280;10604;51.976;7.594;2024-02-04T07:57:38;101310.94;;;19.22;48.47
20889;BME280;10604;51.976;7.594;2024-02-04T08:00:04;101297.03;;;20.50;47.32
20889;BME280;10604;51.976;7.594;2024-02-04T08:02:30;101282.16;;;19.41;48.63
20889;BME280;10604;51.976;7.594;2024-02-04T08:04:56;101274.50;;;19.19;49.39
20889;BME280;10604;51.976;7.594;2024-02-04T08:07:21;101262.50;;;20.02;47.81
20889;BME280;10604;51.976;7.594;2024-02-04T08:09:46;101257.88;;;19.89;48.40
20889;BME280;10604;51.976;7.594;2024-02-04T08:12:11;101253.38;;;19.30;49.71
20889;BME280;10604;51.976;7.594;2024-02-04T08:14:37;101265.75;;;20.07;47.73
20889;BME280;10604;51.976;7.594;2024-02-04T08:17:02;101273.81;;;19.77;48.87
20889;BME280;10604;51.976;7.594;2024-02-04T08:19:27;101273.28;;;20.44;47.21
20889;BME280;10604;51.976;7.594;2024-02-04T08:21:52;101280.16;;;19.90;48.59
20889;BME280;10604;51.976;7.594;2024-02-04T08:24:18;101274.13;;;19.86;48.45
20889;BME280;10604;51.976;7.594;2024-02-04T08:26:43;101260.78;;;20.15;48.22
20889;BME280;10604;51.976;7.594;2024-02-04T08:29:08;101263.78;;;19.80;48.46
20889;BME280;10604;51.976;7.594;2024-02-04T08:31:33;101258.47;;;19.94;48.42
20889;BME280;10604;51.976;7.594;2024-02-04T08:33:59;101252.22;;;20.52;47.04
20889;BME280;10604;51.976;7.594;2024-02-04T08:36:24;101253.66;;;20.58;47.35
20889;BME280;10604;51.976;7.594;2024-02-04T08:38:49;101254.44;;;21.01;46.32
20889;BME280;10604;51.976;7.594;2024-02-04T08:41:14;101265.78;;;19.47;48.41
20889;BME280;10604;51.976;7.594;2024-02-04T08:43:39;101274.09;;;20.87;45.94
20889;BME280;10604;51.976;7.594;2024-02-04T08:46:05;101254.41;;;20.31;47.24
20889;BME280;10604;51.976;7.594;2024-02-04T08:48:30;101259.63;;;20.90;46.60
20889;BME280;10604;51.976;7.594;2024-02-04T08:50:55;101252.50;;;19.89;48.30
20889;BME280;10604;51.976;7.594;2024-02-04T08:53:20;101255.72;;;19.66;48.41
20889;BME280;10604;51.976;7.594;2024-02-04T08:55:46;101260.09;;;19.53;47.73
20889;BME280;10604;51.976;7.594;2024-02-04T08:58:11;101256.13;;;20.61;46.75
20889;BME280;10604;51.976;7.594;2024-02-04T09:00:36;101252.78;;;20.43;46.73
20889;BME280;10604;51.976;7.594;2024-02-04T09:03:02;101266.16;;;20.86;46.34
20889;BME280;10604;51.976;7.594;2024-02-04T09:05:27;101261.47;;;20.61;45.82
20889;BME280;10604;51.976;7.594;2024-02-04T09:07:52;101265.13;;;19.73;48.21
20889;BME280;10604;51.976;7.594;2024-02-04T09:10:20;101266.66;;;20.64;46.10
20889;BME280;10604;51.976;7.594;2024-02-04T09:12:45;101266.31;;;19.98;47.90
20889;BME280;10604;51.976;7.594;2024-02-04T09:15:10;101261.94;;;20.96;45.89
20889;BME280;10604;51.976;7.594;2024-02-04T09:17:35;101259.56;;;19.31;47.56
20889;BME280;10604;51.976;7.594;2024-02-04T09:20:01;101252.59;;;20.46;46.91
20889;BME280;10604;51.976;7.594;2024-02-04T09:22:26;101252.78;;;20.43;47.10
20889;BME280;10604;51.976;7.594;2024-02-04T09:24:51;101258.16;;;19.55;47.56
20889;BME280;10604;51.976;7.594;2024-02-04T09:27:16;101246.84;;;20.52;46.58
20889;BME280;10604;51.976;7.594;2024-02-04T09:29:41;101251.41;;;19.64;47.52
20889;BME280;10604;51.976;7.594;2024-02-04T09:32:07;101250.53;;;19.93;47.70
20889;BME280;10604;51.976;7.594;2024-02-04T09:34:32;101246.84;;;20.52;47.02
20889;BME280;10604;51.976;7.594;2024-02-04T09:36:58;101260.72;;;19.72;47.51
20889;BME280;10604;51.976;7.594;2024-02-04T09:39:23;101254.91;;;19.50;48.24
20889;BME280;10604;51.976;7.594;2024-02-04T09:41:48;101253.00;;;19.52;48.27
20889;BME280;10604;51.976;7.594;2024-02-04T09:44:13;101246.97;;;19.92;47.09
20889;BME280;10604;51.976;7.594;2024-02-04T09:46:39;101248.38;;;20.42;46.53
20889;BME280;10604;51.976;7.594;2024-02-04T09:49:04;101248.06;;;20.18;47.06
20889;BME280;10604;51.976;7.594;2024-02-04T09:51:30;101257.09;;;20.74;46.62
20889;BME280;10604;51.976;7.594;2024-02-04T09:53:56;101254.47;;;20.02;47.74
20889;BME280;10604;51.976;7.594;2024-02-04T09:56:23;101254.63;;;19.84;47.93
20889;BME280;10604;51.976;7.594;2024-02-04T09:58:50;101242.81;;;20.31;47.63
20889;BME280;10604;51.976;7.594;2024-02-04T10:01:18;101243.69;;;20.17;47.67
20889;BME280;10604;51.976;7.594;2024-02-04T10:03:43;101245.69;;;20.70;47.14
20889;BME280;10604;51.976;7.594;2024-02-04T10:06:08;101259.75;;;20.88;47.19
20889;BME280;10604;51.976;7.594;2024-02-04T10:08:37;101256.69;;;21.21;46.20
20889;BME280;10604;51.976;7.594;2024-02-04T10:11:02;101251.59;;;21.31;46.64
20889;BME280;10604;51.976;7.594;2024-02-04T10:13:28;101248.66;;;21.07;46.39
20889;BME280;10604;51.976;7.594;2024-02-04T10:15:54;101256.44;;;21.38;46.47
20889;BME280;10604;51.976;7.594;2024-02-04T10:18:20;101257.91;;;20.89;46.34
20889;BME280;10604;51.976;7.594;2024-02-04T10:20:46;101256.97;;;20.61;48.65
20889;BME280;10604;51.976;7.594;2024-02-04T10:23:11;101252.84;;;21.25;47.25
20889;BME280;10604;51.976;7.594;2024-02-04T10:25:37;101251.94;;;20.43;48.68
20889;BME280;10604;51.976;7.594;2024-02-04T10:28:02;101239.44;;;21.65;46.60
20889;BME280;10604;51.976;7.594;2024-02-04T10:30:27;101238.31;;;21.42;46.80
20889;BME280;10604;51.976;7.594;2024-02-04T10:32:53;101236.84;;;21.63;46.44
20889;BME280;10604;51.976;7.594;2024-02-04T10:35:21;101230.91;;;22.10;45.04
20889;BME280;10604;51.976;7.594;2024-02-04T10:37:48;101229.59;;;20.70;47.35
20889;BME280;10604;51.976;7.594;2024-02-04T10:40:14;101237.31;;;21.82;45.55
20889;BME280;10604;51.976;7.594;2024-02-04T10:42:39;101238.00;;;20.79;46.54
20889;BME280;10604;51.976;7.594;2024-02-04T10:45:07;101243.16;;;20.25;47.75
20889;BME280;10604;51.976;7.594;2024-02-04T10:47:33;101243.78;;;21.53;46.12
20889;BME280;10604;51.976;7.594;2024-02-04T10:50:02;101241.16;;;21.12;46.23
20889;BME280;10604;51.976;7.594;2024-02-04T10:52:28;101243.97;;;21.77;45.79
20889;BME280;10604;51.976;7.594;2024-02-04T10:54:56;101241.31;;;21.37;46.13
20889;BME280;10604;51.976;7.594;2024-02-04T10:57:21;101230.06;;;20.06;48.09
20889;BME280;10604;51.976;7.594;2024-02-04T10:59:51;101234.88;;;20.58;47.67
20889;BME280;10604;51.976;7.594;2024-02-04T11:02:17;101240.03;;;21.43;46.27
20889;BME280;10604;51.976;7.594;2024-02-04T11:04:44;101232.94;;;21.42;46.14
20889;BME280;10604;51.976;7.594;2024-02-04T11:07:10;101235.13;;;20.82;47.38
20889;BME280;10604;51.976;7.594;2024-02-04T11:09:39;101229.53;;;20.99;47.36
20889;BME280;10604;51.976;7.594;2024-02-04T11:12:06;101222.44;;;20.98;47.95
20889;BME280;10604;51.976;7.594;2024-02-04T11:14:34;101215.44;;;21.49;46.90
20889;BME280;10604;51.976;7.594;2024-02-04T11:22:09;101216.28;;;20.55;47.46
20889;BME280;10604;51.976;7.594;2024-02-04T11:24:44;101213.78;;;21.07;47.53
20889;BME280;10604;51.976;7.594;2024-02-04T11:27:13;101208.09;;;20.85;47.78
20889;BME280;10604;51.976;7.594;2024-02-04T11:29:39;101209.97;;;21.38;46.25
20889;BME280;10604;51.976;7.594;2024-02-04T11:32:05;101196.88;;;20.23;48.74
20889;BME280;10604;51.976;7.594;2024-02-04T11:34:31;101202.31;;;19.93;50.40
20889;BME280;10604;51.976;7.594;2024-02-04T11:36:57;101196.91;;;21.84;46.01
20889;BME280;10604;51.976;7.594;2024-02-04T11:39:24;101183.38;;;20.94;47.52
20889;BME280;10604;51.976;7.594;2024-02-04T11:41:50;101174.44;;;20.66;48.55
20889;BME280;10604;51.976;7.594;2024-02-04T11:44:25;101186.00;;;21.47;47.33
20889;BME280;10604;51.976;7.594;2024-02-04T11:46:50;101188.13;;;21.03;48.33
20889;BME280;10604;51.976;7.594;2024-02-04T11:49:17;101197.13;;;21.81;46.67
20889;BME280;10604;51.976;7.594;2024-02-04T11:51:52;101179.09;;;22.21;46.07
20889;BME280;10604;51.976;7.594;2024-02-04T11:54:17;101179.47;;;20.16;48.64
20889;BME280;10604;51.976;7.594;2024-02-04T11:56:48;101168.38;;;20.22;49.18
20889;BME280;10604;51.976;7.594;2024-02-04T11:59:17;101164.66;;;21.84;46.11
20889;BME280;10604;51.976;7.594;2024-02-04T12:01:43;101165.22;;;21.64;46.81
20889;BME280;10604;51.976;7.594;2024-02-04T12:04:17;101160.75;;;22.51;44.69
20889;BME280;10604;51.976;7.594;2024-02-04T12:06:42;101164.84;;;21.43;46.64
20889;BME280;10604;51.976;7.594;2024-02-04T12:09:08;101171.41;;;21.12;47.26
20889;BME280;10604;51.976;7.594;2024-02-04T12:11:36;101167.03;;;22.26;45.75
20889;BME280;10604;51.976;7.594;2024-02-04T12:14:05;101173.00;;;21.41;45.83
20889;BME280;10604;51.976;7.594;2024-02-04T12:16:31;101174.97;;;21.52;46.32
20889;BME280;10604;51.976;7.594;2024-02-04T12:19:01;101177.66;;;20.86;48.21
20889;BME280;10604;51.976;7.594;2024-02-04T12:21:28;101185.59;;;21.14;47.85
20889;BME280;10604;51.976;7.594;2024-02-04T12:23:53;101174.56;;;21.83;46.71
20889;BME280;10604;51.976;7.594;2024-02-04T12:26:19;101167.13;;;21.09;48.32
20889;BME280;10604;51.976;7.594;2024-02-04T12:28:44;101149.34;;;22.48;46.01
20889;BME280;10604;51.976;7.594;2024-02-04T12:31:16;101172.44;;;22.01;47.00
20889;BME280;10604;51.976;7.594;2024-02-04T12:33:42;101164.13;;;21.14;48.55
20889;BME280;10604;51.976;7.594;2024-02-04T12:36:08;101156.88;;;21.16;48.80
20889;BME280;10604;51.976;7.594;2024-02-04T12:38:34;101155.00;;;22.19;47.51
20889;BME280;10604;51.976;7.594;2024-02-04T12:41:03;101161.22;;;21.82;47.55
20889;BME280;10604;51.976;7.594;2024-02-04T12:43:28;101155.19;;;21.53;48.48
20889;BME280;10604;51.976;7.594;2024-02-04T12:45:56;101149.47;;;21.32;48.91
20889;BME280;10604;51.976;7.594;2024-02-04T12:48:21;101156.44;;;21.22;48.51